createdAt,value
2022-11-27T00:02:13.129Z,98906.91
2022-11-27T00:04:44.347Z,98903.23
2022-11-27T00:07:15.329Z,98901.27
2022-11-27T00:09:46.497Z,98911.04
2022-11-27T00:12:17.567Z,98912.73
2022-11-27T00:14:53.396Z,98916.41
2022-11-27T00:17:26.330Z,98915.03
2022-11-27T00:19:57.149Z,98910.09
2022-11-27T00:22:28.077Z,98907.30
2022-11-27T00:24:59.064Z,98908.46
2022-11-27T00:27:30.098Z,98904.37
2022-11-27T00:30:01.247Z,98910.45
2022-11-27T00:32:32.383Z,98912.87
2022-11-27T00:35:03.505Z,98907.75
2022-11-27T00:37:34.571Z,98911.45
2022-11-27T00:40:06.951Z,98911.87
2022-11-27T00:42:37.739Z,98915.06
2022-11-27T00:45:10.215Z,98908.93
2022-11-27T00:47:41.272Z,98908.12
2022-11-27T00:50:13.475Z,98911.48
2022-11-27T00:52:44.665Z,98912.86
2022-11-27T00:55:16.201Z,98906.64
2022-11-27T00:57:45.671Z,98908.23
2022-11-27T01:00:18.691Z,98906.28
2022-11-27T01:02:49.738Z,98908.66
2022-11-27T01:05:20.957Z,98906.53
2022-11-27T01:07:51.879Z,98904.44
2022-11-27T01:10:22.881Z,98905.11
2022-11-27T01:12:53.922Z,98907.27
2022-11-27T01:15:25.056Z,98912.27
2022-11-27T01:17:55.821Z,98905.71
2022-11-27T01:20:26.901Z,98908.05
2022-11-27T01:22:57.965Z,98905.02
2022-11-27T01:25:28.913Z,98906.56
2022-11-27T01:28:00.297Z,98906.45
2022-11-27T01:30:31.456Z,98901.80
2022-11-27T01:33:01.292Z,98903.34
2022-11-27T01:35:33.799Z,98905.28
2022-11-27T01:38:05.099Z,98905.55
2022-11-27T01:40:36.328Z,98909.04
2022-11-27T01:43:12.675Z,98906.00
2022-11-27T01:45:44.638Z,98898.59
2022-11-27T01:48:16.723Z,98897.93
2022-11-27T01:50:47.796Z,98896.93
2022-11-27T01:53:20.665Z,98896.77
2022-11-27T01:55:57.224Z,98899.91
2022-11-27T01:58:31.347Z,98896.25
2022-11-27T02:01:02.776Z,98892.14
2022-11-27T02:03:34.538Z,98893.73
2022-11-27T02:06:05.964Z,98892.09
2022-11-27T02:08:36.936Z,98889.95
2022-11-27T02:11:14.630Z,98885.73
2022-11-27T02:13:45.188Z,98883.66
2022-11-27T02:16:23.338Z,98878.06
2022-11-27T02:19:01.594Z,98871.35
2022-11-27T02:21:41.070Z,98876.02
2022-11-27T02:24:42.690Z,98876.71
2022-11-27T02:27:34.391Z,98875.08
2022-11-27T02:30:08.915Z,98871.23
2022-11-27T02:32:44.786Z,98871.27
2022-11-27T02:35:21.853Z,98871.48
2022-11-27T02:38:01.410Z,98869.01
2022-11-27T02:40:38.756Z,98875.60
2022-11-27T02:43:13.390Z,98871.44
2022-11-27T02:45:46.926Z,98870.77
2022-11-27T02:48:21.137Z,98868.94
2022-11-27T02:50:54.593Z,98870.13
2022-11-27T02:53:29.684Z,98866.47
2022-11-27T02:56:01.617Z,98863.58
2022-11-27T02:58:33.753Z,98859.64
2022-11-27T03:01:07.310Z,98861.55
2022-11-27T03:03:42.948Z,98862.96
2022-11-27T03:06:17.072Z,98863.78
2022-11-27T03:08:55.603Z,98859.81
2022-11-27T03:11:30.863Z,98865.77
2022-11-27T03:14:06.601Z,98862.52
2022-11-27T03:16:41.927Z,98857.93
2022-11-27T03:19:20.036Z,98854.66
2022-11-27T03:21:54.681Z,98857.72
2022-11-27T03:24:25.913Z,98857.22
2022-11-27T03:26:58.232Z,98863.38
2022-11-27T03:29:35.973Z,98859.11
2022-11-27T03:32:08.295Z,98853.63
2022-11-27T03:34:40.749Z,98853.64
2022-11-27T03:37:11.905Z,98847.58
2022-11-27T03:39:43.286Z,98837.97
2022-11-27T03:42:23.985Z,98827.35
2022-11-27T03:45:02.246Z,98824.41
2022-11-27T03:47:46.260Z,98832.63
2022-11-27T03:50:19.921Z,98834.86
2022-11-27T03:53:01.975Z,98833.13
2022-11-27T03:55:44.485Z,98835.43
2022-11-27T03:58:22.772Z,98833.67
2022-11-27T04:00:55.265Z,98837.86
2022-11-27T04:03:29.608Z,98846.97
2022-11-27T04:06:00.895Z,98843.52
2022-11-27T04:08:31.904Z,98837.78
2022-11-27T04:11:03.006Z,98840.48
2022-11-27T04:13:34.044Z,98846.77
2022-11-27T04:16:05.459Z,98840.71
2022-11-27T04:18:36.531Z,98839.08
2022-11-27T04:21:08.157Z,98845.20
2022-11-27T04:23:38.717Z,98848.61
2022-11-27T04:26:09.817Z,98851.45
2022-11-27T04:28:40.762Z,98850.09
2022-11-27T04:31:11.635Z,98856.13
2022-11-27T04:33:42.686Z,98855.52
2022-11-27T04:36:14.086Z,98853.44
2022-11-27T04:38:45.275Z,98851.62
2022-11-27T04:41:16.509Z,98852.71
2022-11-27T04:43:47.488Z,98858.23
2022-11-27T04:46:18.340Z,98858.75
2022-11-27T04:48:49.341Z,98863.55
2022-11-27T04:51:20.523Z,98861.97
2022-11-27T04:53:51.550Z,98861.20
2022-11-27T04:56:22.737Z,98859.17
2022-11-27T04:58:52.492Z,98858.48
2022-11-27T05:01:23.591Z,98860.25
2022-11-27T05:03:54.513Z,98859.27
2022-11-27T05:06:25.419Z,98857.84
2022-11-27T05:09:00.131Z,98859.87
2022-11-27T05:11:32.359Z,98861.56
2022-11-27T05:14:20.050Z,98862.70
2022-11-27T05:16:52.781Z,98865.85
2022-11-27T05:19:26.297Z,98864.75
2022-11-27T05:21:57.288Z,98871.23
2022-11-27T05:24:29.792Z,98869.44
2022-11-27T05:27:00.835Z,98868.19
2022-11-27T05:29:32.580Z,98863.98
2022-11-27T05:32:03.596Z,98862.75
2022-11-27T05:34:35.016Z,98861.64
2022-11-27T05:37:06.369Z,98859.85
2022-11-27T05:39:37.321Z,98862.75
2022-11-27T05:42:08.863Z,98860.91
2022-11-27T05:44:40.187Z,98861.80
2022-11-27T05:47:11.770Z,98863.61
2022-11-27T05:49:42.630Z,98860.78
2022-11-27T05:52:13.526Z,98861.54
2022-11-27T05:54:44.585Z,98856.23
2022-11-27T05:57:15.481Z,98852.98
2022-11-27T05:59:46.453Z,98856.64
2022-11-27T06:02:22.630Z,98858.58
2022-11-27T06:04:56.148Z,98860.43
2022-11-27T06:07:27.242Z,98857.05
2022-11-27T06:09:56.710Z,98860.39
2022-11-27T06:12:27.855Z,98858.64
2022-11-27T06:14:58.904Z,98865.58
2022-11-27T06:17:29.887Z,98868.33
2022-11-27T06:20:01.161Z,98864.81
2022-11-27T06:22:33.114Z,98863.65
2022-11-27T06:25:04.591Z,98865.16
2022-11-27T06:27:37.226Z,98866.10
2022-11-27T06:30:10.458Z,98871.13
2022-11-27T06:32:41.424Z,98869.83
2022-11-27T06:35:12.755Z,98873.20
2022-11-27T06:37:42.094Z,98876.13
2022-11-27T06:40:13.834Z,98880.92
2022-11-27T06:42:44.672Z,98883.47
2022-11-27T06:45:15.555Z,98881.75
2022-11-27T06:47:46.582Z,98883.15
2022-11-27T06:50:17.570Z,98880.45
2022-11-27T06:52:48.417Z,98876.32
2022-11-27T06:55:19.520Z,98876.86
2022-11-27T06:57:52.453Z,98873.63
2022-11-27T07:00:23.618Z,98876.36
2022-11-27T07:02:56.285Z,98879.23
2022-11-27T07:05:27.828Z,98879.37
2022-11-27T07:07:59.360Z,98878.64
2022-11-27T07:10:30.503Z,98877.94
2022-11-27T07:13:01.536Z,98885.13
2022-11-27T07:15:33.525Z,98881.16
2022-11-27T07:18:04.835Z,98876.88
2022-11-27T07:20:36.237Z,98877.60
2022-11-27T07:23:07.188Z,98878.38
2022-11-27T07:25:39.791Z,98880.80
2022-11-27T07:28:13.575Z,98879.98
2022-11-27T07:30:47.165Z,98880.98
2022-11-27T07:33:18.034Z,98874.59
2022-11-27T07:35:48.786Z,98876.78
2022-11-27T07:38:19.624Z,98876.77
2022-11-27T07:40:50.524Z,98871.95
2022-11-27T07:43:21.606Z,98867.06
2022-11-27T07:45:51.129Z,98871.99
2022-11-27T07:48:22.160Z,98867.18
2022-11-27T07:50:53.179Z,98862.29
2022-11-27T07:53:24.046Z,98865.77
2022-11-27T07:55:55.068Z,98862.53
2022-11-27T07:58:25.926Z,98856.63
2022-11-27T08:00:56.842Z,98851.39
2022-11-27T08:03:28.485Z,98850.10
2022-11-27T08:05:59.292Z,98848.17
2022-11-27T08:08:30.602Z,98844.79
2022-11-27T08:11:01.744Z,98843.67
2022-11-27T08:13:32.650Z,98846.16
2022-11-27T08:16:03.734Z,98847.27
2022-11-27T08:18:34.801Z,98843.75
2022-11-27T08:21:06.073Z,98839.42
2022-11-27T08:23:36.867Z,98838.90
2022-11-27T08:26:12.377Z,98837.18
2022-11-27T08:28:43.575Z,98836.23
2022-11-27T08:31:14.231Z,98835.84
2022-11-27T08:33:45.307Z,98839.94
2022-11-27T08:36:18.366Z,98839.16
2022-11-27T08:38:49.657Z,98844.63
2022-11-27T08:41:20.728Z,98846.86
2022-11-27T08:43:51.647Z,98844.14
2022-11-27T08:46:22.711Z,98846.10
2022-11-27T08:48:53.790Z,98842.98
2022-11-27T08:51:24.693Z,98844.40
2022-11-27T08:53:55.978Z,98842.59
2022-11-27T08:56:26.142Z,98838.75
2022-11-27T08:58:57.304Z,98842.41
2022-11-27T09:01:30.030Z,98842.61
2022-11-27T09:04:01.305Z,98838.84
2022-11-27T09:06:31.730Z,98838.69
2022-11-27T09:09:05.046Z,98834.15
2022-11-27T09:11:37.428Z,98833.50
2022-11-27T09:14:09.004Z,98831.47
2022-11-27T09:16:40.108Z,98828.02
2022-11-27T09:19:11.272Z,98824.41
2022-11-27T09:21:42.190Z,98824.86
2022-11-27T09:24:13.283Z,98826.02
2022-11-27T09:26:44.771Z,98825.55
2022-11-27T09:29:15.830Z,98818.83
2022-11-27T09:31:46.786Z,98814.25
2022-11-27T09:34:18.401Z,98814.95
2022-11-27T09:36:50.704Z,98805.30
2022-11-27T09:39:22.844Z,98795.84
2022-11-27T09:41:56.557Z,98787.96
2022-11-27T09:44:35.688Z,98788.20
2022-11-27T09:47:17.626Z,98787.27
2022-11-27T09:49:52.698Z,98785.48
2022-11-27T09:52:30.792Z,98787.80
2022-11-27T09:55:07.115Z,98789.21
2022-11-27T09:57:41.770Z,98791.31
2022-11-27T10:00:18.687Z,98790.40
2022-11-27T10:02:49.133Z,98789.28
2022-11-27T10:05:24.712Z,98787.67
2022-11-27T10:08:14.682Z,98784.05
2022-11-27T10:10:51.372Z,98784.61
2022-11-27T10:13:34.732Z,98785.14
2022-11-27T10:16:11.075Z,98777.30
2022-11-27T10:18:46.682Z,98773.62
2022-11-27T10:21:26.004Z,98773.67
2022-11-27T10:24:05.697Z,98770.57
2022-11-27T10:26:42.030Z,98769.35
2022-11-27T10:29:31.701Z,98763.52
2022-11-27T10:32:05.806Z,98757.97
2022-11-27T10:34:43.637Z,98753.96
2022-11-27T10:37:20.628Z,98750.88
2022-11-27T10:39:55.301Z,98750.11
2022-11-27T10:42:31.236Z,98747.36
2022-11-27T10:47:53.017Z,98745.52
2022-11-27T10:50:24.265Z,98740.17
2022-11-27T10:53:00.048Z,98733.18
2022-11-27T10:55:44.214Z,98733.02
2022-11-27T10:58:24.244Z,98732.85
2022-11-27T11:01:05.458Z,98738.51
2022-11-27T11:03:36.966Z,98741.27
2022-11-27T11:06:21.991Z,98742.02
2022-11-27T11:09:05.370Z,98740.33
2022-11-27T11:11:36.398Z,98740.16
2022-11-27T11:14:18.868Z,98733.48
2022-11-27T11:16:50.764Z,98729.52
2022-11-27T11:19:33.023Z,98725.48
2022-11-27T11:22:15.687Z,98719.98
2022-11-27T11:24:51.343Z,98715.52
2022-11-27T11:27:26.484Z,98714.88
2022-11-27T11:30:00.796Z,98708.17
2022-11-27T11:32:34.425Z,98702.44
2022-11-27T11:35:09.869Z,98704.54
2022-11-27T11:37:45.608Z,98704.45
2022-11-27T11:40:27.874Z,98704.98
2022-11-27T11:43:01.097Z,98700.48
2022-11-27T11:45:33.730Z,98694.32
2022-11-27T11:48:21.601Z,98694.32
2022-11-27T11:50:56.855Z,98692.93
2022-11-27T11:53:35.855Z,98689.84
2022-11-27T11:56:19.252Z,98688.30
2022-11-27T11:58:58.345Z,98684.92
2022-11-27T12:01:48.226Z,98683.61
2022-11-27T12:04:39.834Z,98680.90
2022-11-27T12:07:21.660Z,98686.30
2022-11-27T12:09:58.620Z,98684.98
2022-11-27T12:12:45.462Z,98686.90
2022-11-27T12:15:23.585Z,98689.57
2022-11-27T12:18:02.499Z,98690.90
2022-11-27T12:20:48.667Z,98688.64
2022-11-27T12:23:52.925Z,98683.52
2022-11-27T12:26:33.652Z,98686.05
2022-11-27T12:29:21.001Z,98682.67
2022-11-27T12:32:16.122Z,98682.96
2022-11-27T12:34:57.721Z,98676.04
2022-11-27T12:37:44.588Z,98676.33
2022-11-27T12:40:29.598Z,98675.59
2022-11-27T12:43:15.347Z,98672.73
2022-11-27T12:45:50.166Z,98665.01
2022-11-27T12:48:27.052Z,98661.02
2022-11-27T12:51:02.396Z,98664.96
2022-11-27T12:53:40.502Z,98670.45
2022-11-27T12:56:17.306Z,98670.74
2022-11-27T12:58:51.651Z,98667.92
2022-11-27T13:01:29.025Z,98669.48
2022-11-27T13:04:14.631Z,98667.34
2022-11-27T13:06:56.460Z,98666.64
2022-11-27T13:09:38.940Z,98660.48
2022-11-27T13:12:10.529Z,98652.63
2022-11-27T13:14:47.511Z,98646.89
2022-11-27T13:17:22.009Z,98643.48
2022-11-27T13:19:53.743Z,98640.84
2022-11-27T13:22:29.614Z,98636.75
2022-11-27T13:25:03.993Z,98630.48
2022-11-27T13:27:37.385Z,98627.61
2022-11-27T13:30:19.786Z,98629.43
2022-11-27T13:32:53.912Z,98623.78
2022-11-27T13:35:30.984Z,98625.13
2022-11-27T13:38:09.898Z,98630.34
2022-11-27T13:40:44.317Z,98626.92
2022-11-27T13:43:29.583Z,98625.02
2022-11-27T13:46:11.935Z,98624.08
2022-11-27T13:48:45.162Z,98621.33
2022-11-27T13:51:27.470Z,98624.38
2022-11-27T13:54:10.319Z,98614.89
2022-11-27T13:56:41.390Z,98610.13
2022-11-27T13:59:21.015Z,98604.97
2022-11-27T14:01:59.891Z,98611.56
2022-11-27T14:04:35.215Z,98616.30
2022-11-27T14:07:10.033Z,98614.34
2022-11-27T14:09:45.807Z,98608.91
2022-11-27T14:12:25.424Z,98610.66
2022-11-27T14:15:07.740Z,98615.00
2022-11-27T14:17:41.943Z,98605.47
2022-11-27T14:20:29.856Z,98609.36
2022-11-27T14:23:17.538Z,98623.27
2022-11-27T14:25:48.630Z,98620.06
2022-11-27T14:28:25.961Z,98607.48
2022-11-27T14:30:59.305Z,98614.33
2022-11-27T14:33:47.439Z,98611.41
2022-11-27T14:36:28.272Z,98609.03
2022-11-27T14:39:01.076Z,98607.73
2022-11-27T14:41:32.349Z,98610.11
2022-11-27T14:44:04.331Z,98608.34
2022-11-27T14:46:37.777Z,98606.64
2022-11-27T14:49:18.394Z,98603.59
2022-11-27T14:51:51.404Z,98598.70
2022-11-27T14:54:26.874Z,98591.05
2022-11-27T14:56:58.426Z,98581.66
2022-11-27T14:59:29.430Z,98580.89
2022-11-27T15:02:04.180Z,98581.39
2022-11-27T15:04:39.207Z,98584.86
2022-11-27T15:07:17.268Z,98587.36
2022-11-27T15:09:50.161Z,98586.87
2022-11-27T15:12:23.287Z,98587.41
2022-11-27T15:14:59.352Z,98584.44
2022-11-27T15:17:32.940Z,98581.19
2022-11-27T15:20:11.309Z,98574.90
2022-11-27T15:22:48.729Z,98576.42
2022-11-27T15:25:34.709Z,98568.76
2022-11-27T15:28:20.847Z,98570.97
2022-11-27T15:30:52.327Z,98575.67
2022-11-27T15:33:31.945Z,98577.85
2022-11-27T15:36:23.113Z,98578.35
2022-11-27T15:39:04.777Z,98571.75
2022-11-27T15:41:40.827Z,98575.49
2022-11-27T15:44:14.345Z,98575.50
2022-11-27T15:46:45.542Z,98574.30
2022-11-27T15:49:15.999Z,98569.34
2022-11-27T15:51:46.787Z,98567.02
2022-11-27T15:54:18.193Z,98569.86
2022-11-27T15:56:49.189Z,98567.21
2022-11-27T15:59:21.171Z,98562.65
2022-11-27T16:01:52.735Z,98559.20
2022-11-27T16:04:23.854Z,98560.83
2022-11-27T16:06:54.800Z,98555.75
2022-11-27T16:09:25.798Z,98552.05
2022-11-27T16:11:57.151Z,98554.21
2022-11-27T16:14:27.968Z,98552.18
2022-11-27T16:17:00.583Z,98545.73
2022-11-27T16:19:31.645Z,98543.97
2022-11-27T16:22:02.867Z,98545.55
2022-11-27T16:24:34.074Z,98542.04
2022-11-27T16:27:04.964Z,98540.05
2022-11-27T16:29:36.095Z,98536.70
2022-11-27T16:32:09.216Z,98529.77
2022-11-27T16:34:40.597Z,98526.42
2022-11-27T16:37:17.007Z,98523.24
2022-11-27T16:39:49.142Z,98528.94
2022-11-27T16:42:20.119Z,98525.16
2022-11-27T16:44:51.287Z,98519.21
2022-11-27T16:47:22.088Z,98511.39
2022-11-27T16:49:53.207Z,98501.64
2022-11-27T16:52:24.434Z,98497.44
2022-11-27T16:54:55.023Z,98495.77
2022-11-27T16:57:26.097Z,98496.39
2022-11-27T16:59:57.457Z,98489.27
2022-11-27T17:02:28.970Z,98484.15
2022-11-27T17:05:00.543Z,98486.29
2022-11-27T17:07:32.343Z,98487.57
2022-11-27T17:10:01.614Z,98490.34
2022-11-27T17:12:33.318Z,98490.45
2022-11-27T17:15:04.450Z,98492.72
2022-11-27T17:17:39.886Z,98493.62
2022-11-27T17:20:12.058Z,98490.57
2022-11-27T17:22:42.929Z,98488.61
2022-11-27T17:25:14.116Z,98489.10
2022-11-27T17:27:44.982Z,98489.22
2022-11-27T17:30:16.890Z,98486.95
2022-11-27T17:32:48.078Z,98488.66
2022-11-27T17:35:19.131Z,98488.83
2022-11-27T17:37:49.917Z,98488.35
2022-11-27T17:40:21.048Z,98485.41
2022-11-27T17:42:51.939Z,98475.49
2022-11-27T17:45:22.931Z,98472.68
2022-11-27T17:47:53.783Z,98465.95
2022-11-27T17:50:24.527Z,98467.76
2022-11-27T17:52:56.236Z,98459.30
2022-11-27T17:55:27.198Z,98461.52
2022-11-27T17:57:58.092Z,98463.02
2022-11-27T18:00:29.263Z,98463.67
2022-11-27T18:03:03.429Z,98465.92
2022-11-27T18:05:40.564Z,98462.25
2022-11-27T18:08:11.378Z,98455.49
2022-11-27T18:10:42.409Z,98454.88
2022-11-27T18:13:13.679Z,98452.05
2022-11-27T18:15:44.585Z,98446.22
2022-11-27T18:18:15.742Z,98445.95
2022-11-27T18:20:47.087Z,98444.31
2022-11-27T18:23:16.466Z,98444.08
2022-11-27T18:25:49.072Z,98441.21
2022-11-27T18:28:20.123Z,98442.66
2022-11-27T18:30:51.307Z,98437.79
2022-11-27T18:33:22.048Z,98436.71
2022-11-27T18:35:54.995Z,98436.15
2022-11-27T18:38:25.867Z,98432.27
2022-11-27T18:40:57.204Z,98428.27
2022-11-27T18:43:28.081Z,98418.80
2022-11-27T18:45:59.332Z,98415.88
2022-11-27T18:48:29.098Z,98415.84
2022-11-27T18:51:06.325Z,98414.95
2022-11-27T18:53:38.263Z,98410.45
2022-11-27T18:56:12.265Z,98407.75
2022-11-27T18:58:44.579Z,98404.19
2022-11-27T19:01:18.996Z,98409.04
2022-11-27T19:03:50.485Z,98407.60
2022-11-27T19:06:23.781Z,98411.64
2022-11-27T19:08:55.270Z,98412.38
2022-11-27T19:11:28.752Z,98411.94
2022-11-27T19:14:00.724Z,98413.55
2022-11-27T19:16:34.117Z,98413.89
2022-11-27T19:19:06.382Z,98408.70
2022-11-27T19:21:37.583Z,98407.77
2022-11-27T19:24:09.549Z,98411.63
2022-11-27T19:26:40.602Z,98413.29
2022-11-27T19:29:13.796Z,98414.67
2022-11-27T19:31:45.080Z,98407.52
2022-11-27T19:34:16.443Z,98403.98
2022-11-27T19:36:47.767Z,98401.40
2022-11-27T19:39:18.775Z,98401.59
2022-11-27T19:41:49.755Z,98396.45
2022-11-27T19:44:20.612Z,98392.90
2022-11-27T19:46:51.525Z,98386.52
2022-11-27T19:49:22.579Z,98381.77
2022-11-27T19:51:53.669Z,98379.27
2022-11-27T19:54:24.987Z,98379.70
2022-11-27T19:56:55.936Z,98378.31
2022-11-27T19:59:27.468Z,98376.02
2022-11-27T20:01:58.702Z,98374.73
2022-11-27T20:04:28.330Z,98372.67
2022-11-27T20:06:59.472Z,98374.19
2022-11-27T20:09:30.427Z,98371.75
2022-11-27T20:12:01.804Z,98371.95
2022-11-27T20:14:32.809Z,98369.09
2022-11-27T20:17:03.957Z,98367.97
2022-11-27T20:19:34.912Z,98368.73
2022-11-27T20:22:05.942Z,98367.89
2022-11-27T20:24:52.747Z,98367.83
2022-11-27T20:27:28.513Z,98362.65
2022-11-27T20:30:00.344Z,98360.64
2022-11-27T20:32:29.667Z,98357.69
2022-11-27T20:35:00.865Z,98356.95
2022-11-27T20:37:31.762Z,98358.83
2022-11-27T20:40:02.539Z,98357.69
2022-11-27T20:42:33.596Z,98357.71
2022-11-27T20:45:06.074Z,98351.78
2022-11-27T20:47:37.366Z,98351.91
2022-11-27T20:50:09.677Z,98347.06
2022-11-27T20:52:40.462Z,98344.80
2022-11-27T20:55:12.053Z,98344.89
2022-11-27T20:57:41.530Z,98339.38
2022-11-27T21:00:14.127Z,98341.11
2022-11-27T21:02:44.922Z,98347.74
2022-11-27T21:05:16.181Z,98344.70
2022-11-27T21:07:47.671Z,98349.02
2022-11-27T21:10:20.318Z,98349.14
2022-11-27T21:12:51.526Z,98347.30
2022-11-27T21:15:22.582Z,98343.12
2022-11-27T21:17:53.549Z,98344.23
2022-11-27T21:20:24.482Z,98342.14
2022-11-27T21:22:55.782Z,98337.33
2022-11-27T21:25:26.587Z,98332.30
2022-11-27T21:27:58.215Z,98334.83
2022-11-27T21:30:27.542Z,98329.75
2022-11-27T21:32:58.670Z,98329.69
2022-11-27T21:35:32.672Z,98325.20
2022-11-27T21:38:05.105Z,98323.13
2022-11-27T21:40:37.870Z,98320.20
2022-11-27T21:43:08.722Z,98318.48
2022-11-27T21:45:40.189Z,98317.08
2022-11-27T21:48:14.293Z,98313.88
2022-11-27T21:50:45.475Z,98310.43
2022-11-27T21:53:16.386Z,98312.97
2022-11-27T21:55:47.295Z,98310.91
2022-11-27T21:58:18.225Z,98305.89
2022-11-27T22:00:51.758Z,98307.13
2022-11-27T22:03:22.913Z,98302.16
2022-11-27T22:06:01.711Z,98303.76
2022-11-27T22:11:23.276Z,98303.02
2022-11-27T22:13:55.382Z,98293.02
2022-11-27T22:16:28.130Z,98294.02
2022-11-27T22:19:00.687Z,98295.11
2022-11-27T22:21:33.388Z,98295.04
2022-11-27T22:24:04.211Z,98285.70
2022-11-27T22:26:35.086Z,98280.70
2022-11-27T22:29:06.074Z,98279.42
2022-11-27T22:31:37.550Z,98276.52
2022-11-27T22:34:09.050Z,98273.52
2022-11-27T22:36:40.251Z,98264.02
2022-11-27T22:39:11.203Z,98262.52
2022-11-27T22:41:42.776Z,98257.73
2022-11-27T22:44:12.697Z,98258.38
2022-11-27T22:46:44.542Z,98254.33
2022-11-27T22:49:18.642Z,98253.33
2022-11-27T22:51:49.956Z,98246.87
2022-11-27T22:54:22.808Z,98249.11
2022-11-27T22:56:53.646Z,98248.55
2022-11-27T22:59:33.828Z,98253.45
2022-11-27T23:02:06.679Z,98254.45
2022-11-27T23:04:39.185Z,98252.24
2022-11-27T23:07:11.056Z,98246.89
2022-11-27T23:09:42.329Z,98246.56
2022-11-27T23:12:13.109Z,98238.46
2022-11-27T23:14:44.392Z,98235.65
2022-11-27T23:17:15.551Z,98233.77
2022-11-27T23:19:46.780Z,98234.36
2022-11-27T23:22:17.836Z,98235.30
2022-11-27T23:24:49.379Z,98233.17
2022-11-27T23:27:20.286Z,98232.56
2022-11-27T23:29:51.309Z,98230.20
2022-11-27T23:32:22.547Z,98230.09
2022-11-27T23:34:53.447Z,98227.44
2022-11-27T23:37:24.550Z,98221.54
2022-11-27T23:39:55.650Z,98218.05
2022-11-27T23:42:26.713Z,98214.80
2022-11-27T23:44:57.626Z,98214.39
2022-11-27T23:47:28.541Z,98210.83
2022-11-27T23:49:59.389Z,98212.89
2022-11-27T23:52:30.330Z,98208.45
2022-11-27T23:55:01.187Z,98205.50
2022-11-27T23:57:32.425Z,98197.56
